createdAt,value
2022-10-19T00:01:32.274Z,99984.72
2022-10-19T00:03:59.987Z,99975.66
2022-10-19T00:06:34.403Z,99974.78
2022-10-19T00:09:05.979Z,99973.75
2022-10-19T00:11:33.471Z,99969.28
2022-10-19T00:14:00.610Z,99966.78
2022-10-19T00:16:31.018Z,99968.50
2022-10-19T00:18:59.554Z,99972.13
2022-10-19T00:21:26.687Z,99977.31
2022-10-19T00:23:53.266Z,99976.44
2022-10-19T00:26:19.803Z,99978.22
2022-10-19T00:28:46.446Z,99979.09
2022-10-19T00:31:17.261Z,99976.41
2022-10-19T00:33:47.037Z,99982.56
2022-10-19T00:36:20.281Z,99978.16
2022-10-19T00:38:47.160Z,99990.38
2022-10-19T00:41:14.767Z,99977.97
2022-10-19T00:44:13.705Z,99980.63
2022-10-19T00:46:42.758Z,99988.53
2022-10-19T00:49:13.065Z,99992.00
2022-10-19T00:51:41.921Z,99992.00
2022-10-19T00:54:09.589Z,99992.97
2022-10-19T00:56:41.073Z,99989.50
2022-10-19T00:59:09.458Z,99994.91
2022-10-19T01:01:36.591Z,99995.81
2022-10-19T01:04:04.018Z,100004.78
2022-10-19T01:06:31.169Z,100003.97
2022-10-19T01:08:57.731Z,100003.91
2022-10-19T01:11:39.946Z,100002.19
2022-10-19T01:14:25.041Z,99999.66
2022-10-19T01:17:03.674Z,99992.56
2022-10-19T01:19:55.039Z,99994.28
2022-10-19T01:23:11.893Z,99993.28
2022-10-19T01:26:03.387Z,99974.53
2022-10-19T01:28:59.606Z,99974.66
2022-10-19T01:31:48.438Z,99968.47
2022-10-19T01:34:33.132Z,99963.13
2022-10-19T01:37:05.417Z,99965.63
2022-10-19T01:39:38.132Z,99969.88
2022-10-19T01:42:13.660Z,99976.94
2022-10-19T01:44:50.056Z,99973.44
2022-10-19T01:47:30.456Z,99971.47
2022-10-19T01:50:03.686Z,99972.91
2022-10-19T01:52:32.932Z,99974.63
2022-10-19T01:55:03.180Z,99974.78
2022-10-19T01:57:36.338Z,99986.13
2022-10-19T02:00:07.608Z,99973.97
2022-10-19T02:02:37.723Z,99985.72
2022-10-19T02:05:06.007Z,99976.78
2022-10-19T02:07:33.731Z,99976.75
2022-10-19T02:10:00.826Z,99974.28
2022-10-19T02:12:29.026Z,99970.06
2022-10-19T02:14:59.154Z,99964.88
2022-10-19T02:17:30.880Z,99962.22
2022-10-19T02:19:58.073Z,99970.22
2022-10-19T02:22:28.113Z,99972.75
2022-10-19T02:24:54.552Z,99966.41
2022-10-19T02:27:21.354Z,99968.16
2022-10-19T02:29:48.033Z,99968.84
2022-10-19T02:32:14.853Z,99968.09
2022-10-19T02:34:41.918Z,99976.19
2022-10-19T02:37:08.626Z,99983.34
2022-10-19T02:39:35.579Z,99988.78
2022-10-19T02:42:06.824Z,99981.81
2022-10-19T02:45:03.253Z,99981.72
2022-10-19T02:47:37.573Z,99984.38
2022-10-19T02:50:08.426Z,99984.31
2022-10-19T02:52:38.179Z,99982.53
2022-10-19T02:55:06.151Z,99981.66
2022-10-19T02:57:33.298Z,99977.25
2022-10-19T03:00:03.930Z,99975.63
2022-10-19T03:02:30.413Z,99973.88
2022-10-19T03:04:56.925Z,99963.34
2022-10-19T03:07:23.853Z,99962.47
2022-10-19T03:09:50.609Z,99967.75
2022-10-19T03:12:17.564Z,99957.06
2022-10-19T03:14:44.583Z,99957.88
2022-10-19T03:17:11.129Z,99963.22
2022-10-19T03:19:37.974Z,99968.59
2022-10-19T03:22:04.661Z,99964.16
2022-10-19T03:24:31.297Z,99962.28
2022-10-19T03:26:57.853Z,99968.56
2022-10-19T03:29:24.561Z,99970.22
2022-10-19T03:31:51.352Z,99973.69
2022-10-19T03:34:17.888Z,99977.19
2022-10-19T03:36:44.421Z,99970.25
2022-10-19T03:39:13.681Z,99973.00
2022-10-19T03:41:40.738Z,99970.34
2022-10-19T03:44:08.490Z,99972.13
2022-10-19T03:46:35.563Z,99973.91
2022-10-19T03:49:02.757Z,99988.00
2022-10-19T03:51:31.036Z,99973.03
2022-10-19T03:54:00.018Z,99980.13
2022-10-19T03:56:28.700Z,99976.66
2022-10-19T03:58:56.882Z,99983.63
2022-10-19T04:01:41.202Z,99980.09
2022-10-19T04:04:11.185Z,99982.00
2022-10-19T04:06:41.296Z,99985.56
2022-10-19T04:09:08.984Z,99988.97
2022-10-19T04:11:36.476Z,99981.88
2022-10-19T04:14:04.011Z,99988.00
2022-10-19T04:16:32.208Z,99987.19
2022-10-19T04:18:59.060Z,99980.09
2022-10-19T04:21:29.935Z,99984.34
2022-10-19T04:24:08.519Z,99990.56
2022-10-19T04:26:39.777Z,99986.97
2022-10-19T04:29:06.445Z,99989.47
2022-10-19T04:31:32.950Z,99986.72
2022-10-19T04:33:59.661Z,99986.69
2022-10-19T04:36:26.324Z,99991.97
2022-10-19T04:38:52.906Z,99992.00
2022-10-19T04:41:20.954Z,99993.84
2022-10-19T04:43:48.305Z,99996.41
2022-10-19T04:46:18.423Z,99993.00
2022-10-19T04:48:46.390Z,100001.03
2022-10-19T04:51:14.265Z,99992.09
2022-10-19T04:53:41.765Z,99994.66
2022-10-19T04:56:17.148Z,99997.50
2022-10-19T04:58:44.144Z,99995.69
2022-10-19T05:01:12.727Z,99995.72
2022-10-19T05:03:39.826Z,99990.41
2022-10-19T05:06:07.622Z,99993.88
2022-10-19T05:08:34.841Z,99985.88
2022-10-19T05:11:03.750Z,99986.00
2022-10-19T05:13:34.354Z,99991.38
2022-10-19T05:16:03.107Z,99992.19
2022-10-19T05:18:30.189Z,99986.78
2022-10-19T05:21:08.297Z,99996.56
2022-10-19T05:23:35.070Z,99996.50
2022-10-19T05:26:17.524Z,99996.41
2022-10-19T05:28:56.137Z,99995.50
2022-10-19T05:31:25.315Z,99996.34
2022-10-19T05:33:51.858Z,99995.69
2022-10-19T05:36:26.807Z,99987.69
2022-10-19T05:38:55.778Z,99992.16
2022-10-19T05:41:24.140Z,99994.75
2022-10-19T05:43:58.710Z,99995.72
2022-10-19T05:46:26.766Z,100001.88
2022-10-19T05:48:54.516Z,99995.63
2022-10-19T05:51:22.800Z,99995.66
2022-10-19T05:53:49.838Z,100000.06
2022-10-19T05:56:21.225Z,100006.25
2022-10-19T05:58:48.300Z,99997.41
2022-10-19T06:01:15.777Z,100000.22
2022-10-19T06:06:27.423Z,100004.78
2022-10-19T06:08:55.374Z,100010.88
2022-10-19T06:11:25.249Z,100002.00
2022-10-19T06:13:54.861Z,100008.94
2022-10-19T06:16:24.007Z,100012.44
2022-10-19T06:18:51.049Z,100009.75
2022-10-19T06:21:20.234Z,100015.97
2022-10-19T06:23:58.112Z,100017.81
2022-10-19T06:26:26.013Z,100012.50
2022-10-19T06:28:55.919Z,100008.00
2022-10-19T06:31:22.514Z,100005.28
2022-10-19T06:33:49.645Z,100017.69
2022-10-19T06:36:23.211Z,100015.94
2022-10-19T06:38:50.546Z,100014.19
2022-10-19T06:41:17.380Z,100017.78
2022-10-19T06:43:44.453Z,100010.66
2022-10-19T06:46:20.509Z,100022.03
2022-10-19T06:49:04.947Z,100015.94
2022-10-19T06:51:34.166Z,100020.44
2022-10-19T06:54:00.804Z,100023.03
2022-10-19T06:56:27.571Z,100023.06
2022-10-19T06:58:54.971Z,100030.16
2022-10-19T07:01:22.211Z,100024.81
2022-10-19T07:03:50.791Z,100029.25
2022-10-19T07:06:18.167Z,100030.13
2022-10-19T07:08:44.909Z,100035.47
2022-10-19T07:11:16.063Z,100027.66
2022-10-19T07:13:42.599Z,100032.09
2022-10-19T07:16:19.510Z,100035.63
2022-10-19T07:18:49.435Z,100041.88
2022-10-19T07:21:16.919Z,100032.94
2022-10-19T07:23:47.365Z,100039.34
2022-10-19T07:26:15.899Z,100044.72
2022-10-19T07:28:45.120Z,100040.22
2022-10-19T07:31:14.634Z,100034.84
2022-10-19T07:33:41.506Z,100044.72
2022-10-19T07:36:10.088Z,100050.03
2022-10-19T07:38:37.092Z,100046.56
2022-10-19T07:41:10.204Z,100053.56
2022-10-19T07:43:36.739Z,100055.25
2022-10-19T07:46:06.922Z,100056.09
2022-10-19T07:48:34.266Z,100056.97
2022-10-19T07:51:02.815Z,100067.56
2022-10-19T07:53:29.381Z,100057.84
2022-10-19T07:55:56.429Z,100061.44
2022-10-19T07:58:22.903Z,100050.97
2022-10-19T08:00:49.419Z,100056.25
2022-10-19T08:06:04.403Z,100060.81
2022-10-19T08:08:31.404Z,100061.75
2022-10-19T08:10:58.673Z,100060.75
2022-10-19T08:13:25.227Z,100050.06
2022-10-19T08:15:51.692Z,100052.75
2022-10-19T08:18:18.512Z,100053.66
2022-10-19T08:20:45.085Z,100050.16
2022-10-19T08:23:11.562Z,100055.66
2022-10-19T08:25:38.005Z,100059.28
2022-10-19T08:28:04.556Z,100052.19
2022-10-19T08:30:31.160Z,100060.16
2022-10-19T08:32:57.638Z,100065.69
2022-10-19T08:35:24.074Z,100066.66
2022-10-19T08:37:50.823Z,100063.22
2022-10-19T08:40:22.985Z,100058.81
2022-10-19T08:43:21.821Z,100055.31
2022-10-19T08:45:53.473Z,100052.56
2022-10-19T08:48:33.091Z,100049.91
2022-10-19T08:51:01.061Z,100050.56
2022-10-19T08:53:37.450Z,100052.34
2022-10-19T08:56:39.044Z,100045.38
2022-10-19T08:59:07.554Z,100044.34
2022-10-19T09:01:40.529Z,100054.94
2022-10-19T09:04:17.182Z,100054.94
2022-10-19T09:07:01.592Z,100057.66
2022-10-19T09:09:30.744Z,100049.06
2022-10-19T09:12:07.221Z,100048.34
2022-10-19T09:14:52.197Z,100049.97
2022-10-19T09:17:18.739Z,100052.47
2022-10-19T09:19:45.437Z,100055.13
2022-10-19T09:22:25.140Z,100051.72
2022-10-19T09:24:54.129Z,100061.41
2022-10-19T09:27:26.216Z,100056.03
2022-10-19T09:29:58.909Z,100056.91
2022-10-19T09:32:38.007Z,100055.97
2022-10-19T09:35:25.073Z,100054.06
2022-10-19T09:37:52.568Z,100057.66
2022-10-19T09:40:25.769Z,100054.13
2022-10-19T09:42:57.150Z,100046.13
2022-10-19T09:45:40.564Z,100050.69
2022-10-19T09:48:20.477Z,100055.22
2022-10-19T09:50:53.560Z,100050.88
2022-10-19T09:53:21.718Z,100049.94
2022-10-19T09:55:56.372Z,100053.44
2022-10-19T09:58:29.167Z,100057.78
2022-10-19T10:00:58.822Z,100063.03
2022-10-19T10:03:40.343Z,100053.34
2022-10-19T10:06:15.790Z,100058.66
2022-10-19T10:08:52.693Z,100064.06
2022-10-19T10:11:31.652Z,100063.25
2022-10-19T10:14:00.990Z,100059.75
2022-10-19T10:16:30.432Z,100056.31
2022-10-19T10:19:00.917Z,100064.38
2022-10-19T10:21:45.754Z,100063.44
2022-10-19T10:24:12.205Z,100064.22
2022-10-19T10:26:44.832Z,100056.28
2022-10-19T10:29:17.171Z,100060.78
2022-10-19T10:31:44.248Z,100069.69
2022-10-19T10:34:28.325Z,100066.13
2022-10-19T10:36:58.036Z,100071.59
2022-10-19T10:39:28.434Z,100077.75
2022-10-19T10:42:00.116Z,100069.00
2022-10-19T10:44:33.459Z,100064.47
2022-10-19T10:47:01.779Z,100062.56
2022-10-19T10:49:32.845Z,100066.97
2022-10-19T10:52:09.898Z,100059.94
2022-10-19T10:54:37.400Z,100055.63
2022-10-19T10:57:18.469Z,100061.03
2022-10-19T11:00:03.688Z,100059.31
2022-10-19T11:02:58.404Z,100059.19
2022-10-19T11:05:33.575Z,100061.94
2022-10-19T11:08:12.092Z,100050.47
2022-10-19T11:11:00.583Z,100055.78
2022-10-19T11:13:46.506Z,100042.56
2022-10-19T11:16:17.129Z,100046.00
2022-10-19T11:18:48.762Z,100042.44
2022-10-19T11:21:31.938Z,100035.47
2022-10-19T11:24:23.049Z,100033.72
2022-10-19T11:27:02.707Z,100032.75
2022-10-19T11:30:08.543Z,100024.94
2022-10-19T11:32:57.914Z,100026.56
2022-10-19T11:35:36.570Z,100022.09
2022-10-19T11:38:40.298Z,100019.47
2022-10-19T11:41:39.209Z,100009.59
2022-10-19T11:44:32.531Z,100011.50
2022-10-19T11:47:23.818Z,100017.94
2022-10-19T11:50:31.064Z,100013.75
2022-10-19T11:53:12.300Z,100003.81
2022-10-19T11:55:56.339Z,100010.72
2022-10-19T11:58:35.384Z,99999.09
2022-10-19T12:01:24.107Z,99997.22
2022-10-19T12:03:59.674Z,99987.38
2022-10-19T12:06:29.071Z,99984.06
2022-10-19T12:09:14.303Z,99985.03
2022-10-19T12:12:11.097Z,99969.91
2022-10-19T12:14:41.606Z,99973.78
2022-10-19T12:17:15.024Z,99980.13
2022-10-19T12:19:49.366Z,99968.63
2022-10-19T12:22:22.173Z,99975.75
2022-10-19T12:24:50.836Z,99973.03
2022-10-19T12:27:24.872Z,99973.03
2022-10-19T12:29:52.299Z,99959.84
2022-10-19T12:32:23.736Z,99958.09
2022-10-19T12:35:04.730Z,99964.13
2022-10-19T12:37:55.149Z,99962.28
2022-10-19T12:40:46.567Z,99954.22
2022-10-19T12:43:36.304Z,99953.47
2022-10-19T12:46:25.741Z,99951.69
2022-10-19T12:49:26.040Z,99957.97
2022-10-19T12:51:54.348Z,99951.78
2022-10-19T12:54:26.119Z,99953.66
2022-10-19T12:56:55.819Z,99948.34
2022-10-19T12:59:29.091Z,99933.22
2022-10-19T13:01:57.066Z,99941.22
2022-10-19T13:04:29.299Z,99942.03
2022-10-19T13:07:08.054Z,99936.66
2022-10-19T13:09:37.525Z,99936.66
2022-10-19T13:12:19.916Z,99937.53
2022-10-19T13:14:51.927Z,99939.19
2022-10-19T13:17:36.942Z,99927.69
2022-10-19T13:20:15.415Z,99931.16
2022-10-19T13:22:47.314Z,99926.75
2022-10-19T13:25:19.626Z,99925.88
2022-10-19T13:27:51.273Z,99922.41
2022-10-19T13:30:35.987Z,99925.09
2022-10-19T13:33:28.671Z,99914.50
2022-10-19T13:36:02.193Z,99907.41
2022-10-19T13:38:46.777Z,99917.09
2022-10-19T13:41:46.926Z,99911.69
2022-10-19T13:44:14.386Z,99913.47
2022-10-19T13:47:02.204Z,99909.03
2022-10-19T13:49:41.134Z,99914.31
2022-10-19T13:52:07.541Z,99915.16
2022-10-19T13:55:12.658Z,99906.31
2022-10-19T13:57:59.219Z,99897.44
2022-10-19T14:01:00.837Z,99902.69
2022-10-19T14:03:51.291Z,99895.59
2022-10-19T14:06:46.792Z,99899.13
2022-10-19T14:09:16.822Z,99897.28
2022-10-19T14:11:46.926Z,99900.78
2022-10-19T14:14:22.357Z,99895.41
2022-10-19T14:17:02.968Z,99892.78
2022-10-19T14:19:43.084Z,99890.19
2022-10-19T14:22:26.308Z,99890.13
2022-10-19T14:25:01.145Z,99892.69
2022-10-19T14:27:28.174Z,99893.56
2022-10-19T14:29:54.722Z,99885.59
2022-10-19T14:32:25.408Z,99881.06
2022-10-19T14:34:52.881Z,99867.75
2022-10-19T14:37:25.864Z,99883.66
2022-10-19T14:40:07.666Z,99875.66
2022-10-19T14:42:47.370Z,99868.53
2022-10-19T14:45:21.103Z,99873.88
2022-10-19T14:47:54.882Z,99878.34
2022-10-19T14:50:26.589Z,99878.31
2022-10-19T14:53:16.872Z,99873.03
2022-10-19T14:55:44.092Z,99893.38
2022-10-19T14:58:16.409Z,99878.16
2022-10-19T15:00:44.866Z,99870.16
2022-10-19T15:03:17.802Z,99874.59
2022-10-19T15:05:49.718Z,99871.06
2022-10-19T15:08:30.427Z,99873.72
2022-10-19T15:10:57.515Z,99866.56
2022-10-19T15:13:41.728Z,99866.50
2022-10-19T15:16:33.733Z,99859.41
2022-10-19T15:19:14.410Z,99861.06
2022-10-19T15:21:40.907Z,99852.13
2022-10-19T15:24:21.525Z,99868.91
2022-10-19T15:27:06.545Z,99863.63
2022-10-19T15:29:35.076Z,99867.97
2022-10-19T15:32:23.143Z,99861.78
2022-10-19T15:34:50.107Z,99859.94
2022-10-19T15:39:53.391Z,99864.31
2022-10-19T15:42:44.047Z,99856.25
2022-10-19T15:45:36.405Z,99856.16
2022-10-19T15:48:21.525Z,99853.47
2022-10-19T15:50:49.865Z,99857.94
2022-10-19T15:53:16.763Z,99850.72
2022-10-19T15:55:43.301Z,99849.81
2022-10-19T15:58:13.684Z,99848.00
2022-10-19T16:00:41.298Z,99845.22
2022-10-19T16:03:09.100Z,99836.31
2022-10-19T16:05:36.587Z,99837.13
2022-10-19T16:08:03.446Z,99837.09
2022-10-19T16:10:29.941Z,99843.16
2022-10-19T16:12:56.417Z,99844.97
2022-10-19T16:15:23.681Z,99853.06
2022-10-19T16:17:55.517Z,99843.47
2022-10-19T16:20:23.217Z,99845.25
2022-10-19T16:22:50.293Z,99853.13
2022-10-19T16:25:17.272Z,99851.16
2022-10-19T16:27:43.981Z,99840.41
2022-10-19T16:30:11.324Z,99848.88
2022-10-19T16:32:39.847Z,99854.06
2022-10-19T16:35:08.485Z,99850.63
2022-10-19T16:37:35.330Z,99847.00
2022-10-19T16:40:02.011Z,99852.94
2022-10-19T16:42:30.547Z,99841.47
2022-10-19T16:44:57.333Z,99847.63
2022-10-19T16:47:23.823Z,99845.13
2022-10-19T16:49:58.975Z,99846.00
2022-10-19T16:52:27.108Z,99839.75
2022-10-19T16:54:53.659Z,99845.78
2022-10-19T16:57:20.197Z,99840.63
2022-10-19T16:59:50.104Z,99832.00
2022-10-19T17:02:16.661Z,99829.06
2022-10-19T17:04:43.096Z,99835.66
2022-10-19T17:07:09.746Z,99835.59
2022-10-19T17:09:41.766Z,99841.63
2022-10-19T17:12:09.797Z,99831.66
2022-10-19T17:14:38.223Z,99835.09
2022-10-19T17:17:04.893Z,99833.44
2022-10-19T17:19:31.623Z,99838.38
2022-10-19T17:21:59.086Z,99837.47
2022-10-19T17:24:26.051Z,99832.19
2022-10-19T17:26:54.454Z,99842.69
2022-10-19T17:29:22.726Z,99843.56
2022-10-19T17:31:50.024Z,99837.50
2022-10-19T17:34:17.231Z,99836.38
2022-10-19T17:36:45.304Z,99839.03
2022-10-19T17:39:17.588Z,99834.69
2022-10-19T17:41:48.434Z,99837.28
2022-10-19T17:44:15.929Z,99838.69
2022-10-19T17:46:45.152Z,99842.13
2022-10-19T17:49:12.546Z,99842.22
2022-10-19T17:51:39.584Z,99838.97
2022-10-19T17:54:08.836Z,99839.63
2022-10-19T17:56:36.911Z,99841.38
2022-10-19T17:59:04.466Z,99841.28
2022-10-19T18:01:31.047Z,99845.97
2022-10-19T18:03:57.618Z,99846.34
2022-10-19T18:06:31.501Z,99836.19
2022-10-19T18:08:59.771Z,99831.13
2022-10-19T18:11:32.404Z,99830.38
2022-10-19T18:14:00.357Z,99831.31
2022-10-19T18:16:32.852Z,99826.84
2022-10-19T18:19:01.161Z,99833.97
2022-10-19T18:21:32.898Z,99828.63
2022-10-19T18:24:01.922Z,99829.53
2022-10-19T18:26:30.741Z,99830.34
2022-10-19T18:28:58.620Z,99828.59
2022-10-19T18:31:30.982Z,99830.38
2022-10-19T18:34:02.664Z,99835.63
2022-10-19T18:36:30.838Z,99829.44
2022-10-19T18:39:01.910Z,99823.22
2022-10-19T18:41:31.349Z,99824.16
2022-10-19T18:44:04.938Z,99830.38
2022-10-19T18:46:37.485Z,99826.00
2022-10-19T18:49:08.197Z,99828.59
2022-10-19T18:51:35.594Z,99837.25
2022-10-19T18:54:02.181Z,99832.81
2022-10-19T18:56:29.993Z,99837.22
2022-10-19T18:58:56.997Z,99824.78
2022-10-19T19:01:29.413Z,99822.97
2022-10-19T19:03:58.300Z,99828.31
2022-10-19T19:06:29.471Z,99823.00
2022-10-19T19:08:58.821Z,99811.63
2022-10-19T19:11:34.281Z,99811.50
2022-10-19T19:14:07.669Z,99807.94
2022-10-19T19:16:39.333Z,99806.13
2022-10-19T19:19:06.836Z,99810.56
2022-10-19T19:21:35.663Z,99802.66
2022-10-19T19:24:04.646Z,99803.50
2022-10-19T19:26:34.014Z,99798.94
2022-10-19T19:29:02.520Z,99787.44
2022-10-19T19:31:29.193Z,99784.78
2022-10-19T19:33:56.278Z,99784.69
2022-10-19T19:36:22.797Z,99774.03
2022-10-19T19:38:51.068Z,99763.38
2022-10-19T19:41:17.888Z,99758.16
2022-10-19T19:43:44.766Z,99750.25
2022-10-19T19:46:14.501Z,99758.97
2022-10-19T19:48:43.127Z,99751.06
2022-10-19T19:51:11.759Z,99745.78
2022-10-19T19:53:38.603Z,99744.84
2022-10-19T19:56:10.581Z,99746.28
2022-10-19T19:58:37.389Z,99738.03
2022-10-19T20:01:14.589Z,99735.13
2022-10-19T20:03:41.878Z,99737.72
2022-10-19T20:06:09.451Z,99725.22
2022-10-19T20:08:36.952Z,99729.13
2022-10-19T20:11:09.699Z,99732.19
2022-10-19T20:13:36.719Z,99723.53
2022-10-19T20:16:15.672Z,99726.31
2022-10-19T20:18:45.551Z,99720.28
2022-10-19T20:21:12.818Z,99722.00
2022-10-19T20:23:39.428Z,99715.97
2022-10-19T20:26:06.113Z,99724.75
2022-10-19T20:28:33.187Z,99719.53
2022-10-19T20:31:05.192Z,99725.81
2022-10-19T20:33:32.484Z,99730.28
2022-10-19T20:36:07.417Z,99727.59
2022-10-19T20:38:35.035Z,99725.75
2022-10-19T20:41:08.057Z,99716.91
2022-10-19T20:43:36.292Z,99709.91
2022-10-19T20:46:33.370Z,99710.81
2022-10-19T20:49:01.578Z,99709.91
2022-10-19T20:51:38.419Z,99717.94
2022-10-19T20:54:12.292Z,99715.28
2022-10-19T20:56:40.501Z,99715.19
2022-10-19T20:59:13.423Z,99713.25
2022-10-19T21:01:41.753Z,99705.22
2022-10-19T21:04:11.246Z,99706.88
2022-10-19T21:06:41.052Z,99704.13
2022-10-19T21:09:08.519Z,99705.09
2022-10-19T21:11:37.408Z,99698.97
2022-10-19T21:14:06.834Z,99701.63
2022-10-19T21:16:37.823Z,99693.75
2022-10-19T21:19:07.171Z,99698.28
2022-10-19T21:21:36.345Z,99690.41
2022-10-19T21:24:08.752Z,99689.53
2022-10-19T21:26:36.655Z,99684.09
2022-10-19T21:29:04.411Z,99686.72
2022-10-19T21:31:30.962Z,99677.97
2022-10-19T21:33:57.744Z,99680.69
2022-10-19T21:36:27.567Z,99678.06
2022-10-19T21:38:54.031Z,99684.19
2022-10-19T21:41:25.329Z,99679.72
2022-10-19T21:43:53.278Z,99683.19
2022-10-19T21:46:21.632Z,99679.63
2022-10-19T21:48:48.923Z,99676.13
2022-10-19T21:51:23.851Z,99677.88
2022-10-19T21:53:50.912Z,99672.59
2022-10-19T21:56:17.455Z,99665.56
2022-10-19T21:58:48.688Z,99663.78
2022-10-19T22:01:16.786Z,99655.84
2022-10-19T22:03:43.662Z,99653.06
2022-10-19T22:06:10.699Z,99651.16
2022-10-19T22:08:37.756Z,99649.19
2022-10-19T22:11:09.328Z,99649.63
2022-10-19T22:13:36.471Z,99640.38
2022-10-19T22:16:07.430Z,99643.03
2022-10-19T22:18:34.842Z,99630.19
2022-10-19T22:21:10.946Z,99625.00
2022-10-19T22:23:37.907Z,99619.78
2022-10-19T22:26:14.904Z,99615.19
2022-10-19T22:28:42.156Z,99611.56
2022-10-19T22:31:08.849Z,99595.44
2022-10-19T22:33:35.467Z,99606.25
2022-10-19T22:36:04.831Z,99596.19
2022-10-19T22:38:31.668Z,99588.19
2022-10-19T22:40:58.200Z,99585.25
2022-10-19T22:43:24.676Z,99595.78
2022-10-19T22:45:51.256Z,99584.03
2022-10-19T22:48:18.936Z,99582.16
2022-10-19T22:50:46.229Z,99580.50
2022-10-19T22:53:13.408Z,99578.25
2022-10-19T22:55:40.121Z,99576.72
2022-10-19T22:58:08.464Z,99571.47
2022-10-19T23:00:35.228Z,99577.72
2022-10-19T23:03:01.701Z,99577.47
2022-10-19T23:05:28.133Z,99560.97
2022-10-19T23:07:54.641Z,99554.69
2022-10-19T23:10:21.234Z,99550.00
2022-10-19T23:12:54.136Z,99548.22
2022-10-19T23:15:21.777Z,99547.97
2022-10-19T23:17:48.347Z,99546.59
2022-10-19T23:20:15.076Z,99550.03
2022-10-19T23:22:41.534Z,99555.41
2022-10-19T23:25:08.640Z,99557.09
2022-10-19T23:27:35.315Z,99548.38
2022-10-19T23:30:02.807Z,99552.69
2022-10-19T23:32:29.270Z,99553.03
2022-10-19T23:34:55.744Z,99558.84
2022-10-19T23:37:22.260Z,99563.88
2022-10-19T23:39:48.707Z,99559.66
2022-10-19T23:42:15.252Z,99563.31
2022-10-19T23:44:41.732Z,99563.97
2022-10-19T23:47:08.181Z,99558.72
2022-10-19T23:49:34.703Z,99549.19
2022-10-19T23:52:01.166Z,99550.94
2022-10-19T23:54:27.663Z,99544.94
2022-10-19T23:56:54.102Z,99553.56
2022-10-19T23:59:20.591Z,99547.19
